Wetterdaten: Juli 2017
Datum Temp Feuchte Luftdruck Regen Wind Richtung Sonnenschein UV Solar Windben
01.07.2017 14,7 C 95 % 1008,4 hPa 10,2 l/m 2,1 km/h S-SW 0,08 h 1,4 UV-I 79 W/m 6,9 km/h
02.07.2017 15,0 C 87 % 1017,3 hPa 5,0 l/m 0,4 km/h W-NW 0,75 h 1,7 UV-I 143 W/m 3,6 km/h
03.07.2017 17,1 C 70 % 1018,9 hPa 0,0 l/m 3,6 km/h S-SW 8,25 h 3,6 UV-I 391 W/m 6,0 km/h
04.07.2017 17,0 C 80 % 1018,8 hPa 0,0 l/m 1,3 km/h N-NW 4,08 h 2,9 UV-I 312 W/m 4,4 km/h
05.07.2017 19,4 C 73 % 1016,8 hPa 0,0 l/m 1,5 km/h N-NW 7,52 h 3,0 UV-I 364 W/m 4,4 km/h
06.07.2017 20,9 C 71 % 1015,9 hPa 0,0 l/m 0,1 km/h S-SO 10,67 h 3,7 UV-I 444 W/m 1,2 km/h
07.07.2017 22,1 C 77 % 1012,8 hPa 3,2 l/m 3,9 km/h NW 8,92 h 3,2 UV-I 389 W/m 17,3 km/h
08.07.2017 16,4 C 53 % 1014,4 hPa 0,0 l/m 0,8 km/h W-NW 5,48 h 3,4 UV-I 407 W/m 4,0 km/h
09.07.2017 20,8 C 75 % 1011,4 hPa 0,0 l/m 0,0 km/h N-NO 5,00 h 2,9 UV-I 347 W/m 0,0 km/h
10.07.2017 19,7 C 88 % 1006,2 hPa 20,0 l/m 0,6 km/h N-NW 2,25 h 2,6 UV-I 229 W/m 3,2 km/h
11.07.2017 18,1 C 79 % 1010,1 hPa 0,0 l/m 1,2 km/h S-SW 4,92 h 2,9 UV-I 333 W/m 4,0 km/h
12.07.2017 14,1 C 94 % 1010,7 hPa 33,2 l/m 0,7 km/h S 0,33 h 1,1 UV-I 80 W/m 7,2 km/h
13.07.2017 13,3 C 82 % 1020,4 hPa 0,0 l/m 0,0 km/h N-NW 5,33 h 2,6 UV-I 305 W/m 0,0 km/h
14.07.2017 14,9 C 82 % 1015,1 hPa 3,2 l/m 0,8 km/h N-NW 6,48 h 2,8 UV-I 314 W/m 4,8 km/h
15.07.2017 14,8 C 82 % 1021,1 hPa 2,0 l/m 0,0 km/h W-NW 1,98 h 1,7 UV-I 176 W/m 2,4 km/h
16.07.2017 17,5 C 87 % 1021,3 hPa 2,6 l/m 3,0 km/h S-SW 1,25 h 2,2 UV-I 202 W/m 4,8 km/h
17.07.2017 17,0 C 85 % 1020,8 hPa 4,0 l/m 0,1 km/h N-NW 5,33 h 2,9 UV-I 301 W/m 1,2 km/h
18.07.2017 20,0 C 67 % 1018,1 hPa 0,2 l/m 1,5 km/h SO 12,75 h 3,9 UV-I 477 W/m 8,4 km/h
19.07.2017 20,4 C 80 % 1009,8 hPa 10,6 l/m 5,9 km/h S-SO 9,42 h 3,2 UV-I 387 W/m 11,3 km/h
20.07.2017 20,1 C 79 % 1008,7 hPa 3,8 l/m 2,2 km/h S 3,25 h 2,4 UV-I 223 W/m 4,0 km/h
21.07.2017 19,0 C 78 % 1012,3 hPa 0,0 l/m 0,3 km/h SO 7,77 h 3,0 UV-I 371 W/m 2,0 km/h
22.07.2017 19,5 C 85 % 1011,2 hPa 7,0 l/m 4,2 km/h S-SO 5,75 h 3,2 UV-I 337 W/m 5,6 km/h
23.07.2017 16,6 C 76 % 1011,8 hPa 9,2 l/m 5,0 km/h S-SW 5,25 h 2,8 UV-I 314 W/m 8,9 km/h
24.07.2017 13,1 C 95 % 1008,0 hPa 34,6 l/m 1,6 km/h N-NW 0,00 h 0,8 UV-I 57 W/m 6,4 km/h
25.07.2017 13,9 C 97 % 1004,6 hPa 37,4 l/m 11,1 km/h N-NW 0,00 h 0,9 UV-I 55 W/m 27,0 km/h
26.07.2017 16,2 C 84 % 1007,3 hPa 2,4 l/m 1,4 km/h N-NW 1,08 h 1,8 UV-I 146 W/m 6,0 km/h
27.07.2017 17,7 C 77 % 1006,2 hPa 2,0 l/m 0,0 km/h S-SW 3,75 h 2,3 UV-I 253 W/m 1,2 km/h
28.07.2017 16,7 C 79 % 1011,3 hPa 0,4 l/m 1,2 km/h S-SW 5,02 h 2,6 UV-I 298 W/m 7,2 km/h
29.07.2017 18,9 C 83 % 1011,0 hPa 0,2 l/m 0,9 km/h S 3,33 h 2,9 UV-I 275 W/m 5,2 km/h
30.07.2017 22,0 C 68 % 1008,0 hPa 0,2 l/m 10,2 km/h S 7,25 h 3,0 UV-I 351 W/m 16,1 km/h
31.07.2017 18,8 C 77 % 1013,1 hPa 0,0 l/m 0,9 km/h S-SW 10,58 h 2,9 UV-I 402 W/m 4,0 km/h
Min-Datum 04.07.17 04.07.17 25.07.17 21 Tage 01.07.17 - - - - 01.07.17
Min-Zeit 04:05 04:05 20:05 - 00:00 - - - - 00:00
Minimum 0,0 C 0 % 1003,1 hPa - 0,0 km/h - - - - 0,0 km/h
Max-Datum 19.07.17 01.07.17 16.07.17 25.07.17 20.07.17 - 18.07.17 17.07.17 13.07.17 30.07.17
Max-Zeit 16:35 20:55 00:50 17:30 16:45 - 19:55 13:45 12:55 14:20
Maximum 30,6 C 98 % 1022,9 hPa 37,4 l/m 30,5 km/h
S
- 12,67 h 8,0 UV-I 1164 W/m 53,1 km/h
S
Durchschnitt 17,6 C 80 % 1013,0 hPa #191,4 l/m 2,1 km/h N-NW #153:50 h 2,6 UV-I 283 W/m 6,1 km/h

Durchschnitt Minimum Temp.12,2 C
Durchschnitt Maximum Temp.22,7 C